sensor_id;sensor_type;location;lat;lon;timestamp;P1;durP1;ratioP1;P2;durP2;ratioP2
69769;SDS011;57282;52.514;13.458;2023-03-23T00:01:29;21.58;;;7.68;;
69769;SDS011;57282;52.514;13.458;2023-03-23T00:03:57;22.63;;;8.05;;
69769;SDS011;57282;52.514;13.458;2023-03-23T00:06:25;14.50;;;7.20;;
69769;SDS011;57282;52.514;13.458;2023-03-23T00:08:58;16.13;;;6.72;;
69769;SDS011;57282;52.514;13.458;2023-03-23T00:11:29;13.23;;;5.97;;
69769;SDS011;57282;52.514;13.458;2023-03-23T00:13:59;13.25;;;7.05;;
69769;SDS011;57282;52.514;13.458;2023-03-23T00:16:27;13.02;;;6.55;;
69769;SDS011;57282;52.514;13.458;2023-03-23T00:18:58;14.40;;;5.80;;
69769;SDS011;57282;52.514;13.458;2023-03-23T00:21:26;15.40;;;7.25;;
69769;SDS011;57282;52.514;13.458;2023-03-23T00:24:00;15.15;;;6.95;;
69769;SDS011;57282;52.514;13.458;2023-03-23T00:26:28;15.65;;;6.78;;
69769;SDS011;57282;52.514;13.458;2023-03-23T00:29:00;12.32;;;6.78;;
69769;SDS011;57282;52.514;13.458;2023-03-23T00:31:28;14.83;;;6.57;;
69769;SDS011;57282;52.514;13.458;2023-03-23T00:33:58;13.13;;;7.43;;
69769;SDS011;57282;52.514;13.458;2023-03-23T00:36:26;14.75;;;6.85;;
69769;SDS011;57282;52.514;13.458;2023-03-23T00:38:54;15.70;;;6.93;;
69769;SDS011;57282;52.514;13.458;2023-03-23T00:41:23;12.25;;;7.22;;
69769;SDS011;57282;52.514;13.458;2023-03-23T00:43:52;11.93;;;6.70;;
69769;SDS011;57282;52.514;13.458;2023-03-23T00:46:20;15.80;;;6.53;;
69769;SDS011;57282;52.514;13.458;2023-03-23T00:48:47;12.27;;;6.30;;
69769;SDS011;57282;52.514;13.458;2023-03-23T00:51:15;12.25;;;6.10;;
69769;SDS011;57282;52.514;13.458;2023-03-23T00:53:43;12.57;;;6.05;;
69769;SDS011;57282;52.514;13.458;2023-03-23T00:56:10;14.33;;;6.77;;
69769;SDS011;57282;52.514;13.458;2023-03-23T00:58:37;15.20;;;7.00;;
69769;SDS011;57282;52.514;13.458;2023-03-23T01:01:04;13.38;;;7.07;;
69769;SDS011;57282;52.514;13.458;2023-03-23T01:03:33;14.82;;;6.97;;
69769;SDS011;57282;52.514;13.458;2023-03-23T01:06:03;11.43;;;6.43;;
69769;SDS011;57282;52.514;13.458;2023-03-23T01:08:33;11.57;;;6.37;;
69769;SDS011;57282;52.514;13.458;2023-03-23T01:11:03;13.32;;;6.32;;
69769;SDS011;57282;52.514;13.458;2023-03-23T01:13:30;12.88;;;6.80;;
69769;SDS011;57282;52.514;13.458;2023-03-23T01:15:57;13.10;;;6.55;;
69769;SDS011;57282;52.514;13.458;2023-03-23T01:18:25;13.43;;;6.70;;
69769;SDS011;57282;52.514;13.458;2023-03-23T01:20:53;12.17;;;6.40;;
69769;SDS011;57282;52.514;13.458;2023-03-23T01:23:20;12.25;;;6.03;;
69769;SDS011;57282;52.514;13.458;2023-03-23T01:25:46;11.88;;;6.55;;
69769;SDS011;57282;52.514;13.458;2023-03-23T01:28:14;12.43;;;7.35;;
69769;SDS011;57282;52.514;13.458;2023-03-23T01:30:41;13.40;;;6.65;;
69769;SDS011;57282;52.514;13.458;2023-03-23T01:33:08;11.57;;;6.00;;
69769;SDS011;57282;52.514;13.458;2023-03-23T01:35:37;13.05;;;6.35;;
69769;SDS011;57282;52.514;13.458;2023-03-23T01:38:05;13.65;;;6.65;;
69769;SDS011;57282;52.514;13.458;2023-03-23T01:40:32;12.38;;;6.80;;
69769;SDS011;57282;52.514;13.458;2023-03-23T01:43:01;12.98;;;7.00;;
69769;SDS011;57282;52.514;13.458;2023-03-23T01:45:29;11.73;;;6.20;;
69769;SDS011;57282;52.514;13.458;2023-03-23T01:48:07;13.38;;;6.50;;
69769;SDS011;57282;52.514;13.458;2023-03-23T01:50:42;12.68;;;6.30;;
69769;SDS011;57282;52.514;13.458;2023-03-23T01:53:16;13.05;;;6.75;;
69769;SDS011;57282;52.514;13.458;2023-03-23T01:55:45;11.90;;;6.72;;
69769;SDS011;57282;52.514;13.458;2023-03-23T01:58:15;13.27;;;6.17;;
69769;SDS011;57282;52.514;13.458;2023-03-23T02:00:44;11.98;;;6.22;;
69769;SDS011;57282;52.514;13.458;2023-03-23T02:03:13;11.00;;;5.97;;
69769;SDS011;57282;52.514;13.458;2023-03-23T02:05:42;11.30;;;6.38;;
69769;SDS011;57282;52.514;13.458;2023-03-23T02:08:09;12.20;;;6.45;;
69769;SDS011;57282;52.514;13.458;2023-03-23T02:10:40;12.27;;;6.70;;
69769;SDS011;57282;52.514;13.458;2023-03-23T02:13:07;12.35;;;6.90;;
69769;SDS011;57282;52.514;13.458;2023-03-23T02:15:43;12.82;;;7.50;;
69769;SDS011;57282;52.514;13.458;2023-03-23T02:18:24;13.05;;;7.00;;
69769;SDS011;57282;52.514;13.458;2023-03-23T02:21:14;12.40;;;6.45;;
69769;SDS011;57282;52.514;13.458;2023-03-23T02:24:23;11.87;;;6.27;;
69769;SDS011;57282;52.514;13.458;2023-03-23T02:27:09;12.07;;;6.75;;
69769;SDS011;57282;52.514;13.458;2023-03-23T02:32:51;14.00;;;6.72;;
69769;SDS011;57282;52.514;13.458;2023-03-23T02:35:39;13.68;;;6.35;;
69769;SDS011;57282;52.514;13.458;2023-03-23T02:38:12;12.43;;;6.20;;
69769;SDS011;57282;52.514;13.458;2023-03-23T02:40:42;12.13;;;6.55;;
69769;SDS011;57282;52.514;13.458;2023-03-23T02:43:15;11.20;;;5.90;;
69769;SDS011;57282;52.514;13.458;2023-03-23T02:45:45;12.43;;;6.63;;
69769;SDS011;57282;52.514;13.458;2023-03-23T02:48:14;10.95;;;5.78;;
69769;SDS011;57282;52.514;13.458;2023-03-23T02:50:46;14.60;;;6.63;;
69769;SDS011;57282;52.514;13.458;2023-03-23T02:53:18;13.35;;;7.15;;
69769;SDS011;57282;52.514;13.458;2023-03-23T02:55:47;11.80;;;5.88;;
69769;SDS011;57282;52.514;13.458;2023-03-23T02:58:14;11.55;;;6.72;;
69769;SDS011;57282;52.514;13.458;2023-03-23T03:00:44;13.82;;;6.80;;
69769;SDS011;57282;52.514;13.458;2023-03-23T03:03:15;12.90;;;6.80;;
69769;SDS011;57282;52.514;13.458;2023-03-23T03:05:47;13.45;;;6.72;;
69769;SDS011;57282;52.514;13.458;2023-03-23T03:08:26;12.02;;;6.70;;
69769;SDS011;57282;52.514;13.458;2023-03-23T03:10:57;12.60;;;7.10;;
69769;SDS011;57282;52.514;13.458;2023-03-23T03:13:33;12.18;;;7.00;;
69769;SDS011;57282;52.514;13.458;2023-03-23T03:16:08;13.10;;;6.77;;
69769;SDS011;57282;52.514;13.458;2023-03-23T03:18:42;11.80;;;6.50;;
69769;SDS011;57282;52.514;13.458;2023-03-23T03:21:14;12.55;;;7.00;;
69769;SDS011;57282;52.514;13.458;2023-03-23T03:23:45;12.80;;;6.97;;
69769;SDS011;57282;52.514;13.458;2023-03-23T03:26:16;12.60;;;6.80;;
69769;SDS011;57282;52.514;13.458;2023-03-23T03:28:45;12.83;;;6.50;;
69769;SDS011;57282;52.514;13.458;2023-03-23T03:31:15;12.85;;;7.07;;
69769;SDS011;57282;52.514;13.458;2023-03-23T03:33:43;11.27;;;6.00;;
69769;SDS011;57282;52.514;13.458;2023-03-23T03:36:16;12.68;;;6.00;;
69769;SDS011;57282;52.514;13.458;2023-03-23T03:38:46;12.27;;;6.10;;
69769;SDS011;57282;52.514;13.458;2023-03-23T03:41:15;12.57;;;6.93;;
69769;SDS011;57282;52.514;13.458;2023-03-23T03:43:42;12.77;;;6.80;;
69769;SDS011;57282;52.514;13.458;2023-03-23T03:46:09;13.10;;;6.22;;
69769;SDS011;57282;52.514;13.458;2023-03-23T03:48:36;12.00;;;6.50;;
69769;SDS011;57282;52.514;13.458;2023-03-23T03:51:03;12.77;;;6.70;;
69769;SDS011;57282;52.514;13.458;2023-03-23T03:53:31;12.83;;;6.80;;
69769;SDS011;57282;52.514;13.458;2023-03-23T03:55:58;12.82;;;6.68;;
69769;SDS011;57282;52.514;13.458;2023-03-23T03:58:26;11.77;;;6.05;;
69769;SDS011;57282;52.514;13.458;2023-03-23T04:00:57;12.02;;;6.28;;
69769;SDS011;57282;52.514;13.458;2023-03-23T04:03:24;11.93;;;6.45;;
69769;SDS011;57282;52.514;13.458;2023-03-23T04:05:52;13.37;;;7.23;;
69769;SDS011;57282;52.514;13.458;2023-03-23T04:08:20;11.88;;;7.20;;
69769;SDS011;57282;52.514;13.458;2023-03-23T04:10:49;11.60;;;5.60;;
69769;SDS011;57282;52.514;13.458;2023-03-23T04:13:16;13.23;;;7.32;;
69769;SDS011;57282;52.514;13.458;2023-03-23T04:15:43;12.73;;;6.70;;
69769;SDS011;57282;52.514;13.458;2023-03-23T04:18:11;11.23;;;6.23;;
69769;SDS011;57282;52.514;13.458;2023-03-23T04:20:40;12.23;;;6.97;;
69769;SDS011;57282;52.514;13.458;2023-03-23T04:23:07;11.95;;;6.47;;
69769;SDS011;57282;52.514;13.458;2023-03-23T04:25:34;11.23;;;6.00;;
69769;SDS011;57282;52.514;13.458;2023-03-23T04:28:03;11.98;;;6.22;;
69769;SDS011;57282;52.514;13.458;2023-03-23T04:30:30;10.90;;;6.47;;
69769;SDS011;57282;52.514;13.458;2023-03-23T04:32:57;11.15;;;6.30;;
69769;SDS011;57282;52.514;13.458;2023-03-23T04:35:26;12.40;;;6.10;;
69769;SDS011;57282;52.514;13.458;2023-03-23T04:37:54;11.05;;;6.15;;
69769;SDS011;57282;52.514;13.458;2023-03-23T04:40:22;12.07;;;6.13;;
69769;SDS011;57282;52.514;13.458;2023-03-23T04:42:49;12.90;;;6.70;;
69769;SDS011;57282;52.514;13.458;2023-03-23T04:45:19;12.52;;;6.72;;
69769;SDS011;57282;52.514;13.458;2023-03-23T04:47:48;12.32;;;6.03;;
69769;SDS011;57282;52.514;13.458;2023-03-23T04:50:22;12.82;;;6.55;;
69769;SDS011;57282;52.514;13.458;2023-03-23T04:52:51;11.85;;;6.57;;
69769;SDS011;57282;52.514;13.458;2023-03-23T04:55:19;13.20;;;6.07;;
69769;SDS011;57282;52.514;13.458;2023-03-23T04:57:46;11.00;;;6.05;;
69769;SDS011;57282;52.514;13.458;2023-03-23T05:00:13;12.05;;;6.25;;
69769;SDS011;57282;52.514;13.458;2023-03-23T05:02:43;10.52;;;5.75;;
69769;SDS011;57282;52.514;13.458;2023-03-23T05:05:12;12.13;;;6.07;;
69769;SDS011;57282;52.514;13.458;2023-03-23T05:07:40;11.03;;;5.97;;
69769;SDS011;57282;52.514;13.458;2023-03-23T05:10:07;11.07;;;6.25;;
69769;SDS011;57282;52.514;13.458;2023-03-23T05:12:36;10.90;;;5.90;;
69769;SDS011;57282;52.514;13.458;2023-03-23T05:15:03;10.38;;;5.68;;
69769;SDS011;57282;52.514;13.458;2023-03-23T05:17:32;11.25;;;6.15;;
69769;SDS011;57282;52.514;13.458;2023-03-23T05:20:00;12.00;;;6.40;;
69769;SDS011;57282;52.514;13.458;2023-03-23T05:22:30;10.60;;;5.85;;
69769;SDS011;57282;52.514;13.458;2023-03-23T05:24:57;11.32;;;6.38;;
69769;SDS011;57282;52.514;13.458;2023-03-23T05:27:24;11.48;;;5.97;;
69769;SDS011;57282;52.514;13.458;2023-03-23T05:29:58;11.32;;;6.18;;
69769;SDS011;57282;52.514;13.458;2023-03-23T05:32:41;12.43;;;6.40;;
69769;SDS011;57282;52.514;13.458;2023-03-23T05:35:09;9.40;;;5.13;;
69769;SDS011;57282;52.514;13.458;2023-03-23T05:37:37;11.35;;;5.75;;
69769;SDS011;57282;52.514;13.458;2023-03-23T05:40:05;11.80;;;6.30;;
69769;SDS011;57282;52.514;13.458;2023-03-23T05:42:33;10.23;;;6.10;;
69769;SDS011;57282;52.514;13.458;2023-03-23T05:45:00;10.33;;;5.40;;
69769;SDS011;57282;52.514;13.458;2023-03-23T05:47:28;10.30;;;5.88;;
69769;SDS011;57282;52.514;13.458;2023-03-23T05:49:55;10.00;;;5.50;;
69769;SDS011;57282;52.514;13.458;2023-03-23T05:52:23;10.60;;;5.65;;
69769;SDS011;57282;52.514;13.458;2023-03-23T05:54:51;11.02;;;6.13;;
69769;SDS011;57282;52.514;13.458;2023-03-23T05:57:18;11.47;;;5.53;;
69769;SDS011;57282;52.514;13.458;2023-03-23T05:59:46;10.73;;;5.57;;
69769;SDS011;57282;52.514;13.458;2023-03-23T06:02:14;9.93;;;5.63;;
69769;SDS011;57282;52.514;13.458;2023-03-23T06:04:41;10.30;;;5.75;;
69769;SDS011;57282;52.514;13.458;2023-03-23T06:07:08;10.32;;;5.80;;
69769;SDS011;57282;52.514;13.458;2023-03-23T06:09:39;11.43;;;6.47;;
69769;SDS011;57282;52.514;13.458;2023-03-23T06:12:06;10.57;;;5.65;;
69769;SDS011;57282;52.514;13.458;2023-03-23T06:14:34;10.15;;;5.68;;
69769;SDS011;57282;52.514;13.458;2023-03-23T06:17:01;10.32;;;5.70;;
69769;SDS011;57282;52.514;13.458;2023-03-23T06:19:28;10.75;;;6.03;;
69769;SDS011;57282;52.514;13.458;2023-03-23T06:21:55;7.40;;;4.23;;
69769;SDS011;57282;52.514;13.458;2023-03-23T06:24:22;10.82;;;5.75;;
69769;SDS011;57282;52.514;13.458;2023-03-23T06:26:50;10.35;;;5.40;;
69769;SDS011;57282;52.514;13.458;2023-03-23T06:29:17;11.65;;;5.63;;
69769;SDS011;57282;52.514;13.458;2023-03-23T06:31:45;9.50;;;5.20;;
69769;SDS011;57282;52.514;13.458;2023-03-23T06:34:14;11.23;;;5.10;;
69769;SDS011;57282;52.514;13.458;2023-03-23T06:36:41;9.52;;;5.28;;
69769;SDS011;57282;52.514;13.458;2023-03-23T06:39:09;9.65;;;5.18;;
69769;SDS011;57282;52.514;13.458;2023-03-23T06:41:37;10.30;;;5.20;;
69769;SDS011;57282;52.514;13.458;2023-03-23T06:44:05;10.88;;;5.72;;
69769;SDS011;57282;52.514;13.458;2023-03-23T06:46:33;8.77;;;4.70;;
69769;SDS011;57282;52.514;13.458;2023-03-23T06:49:00;10.65;;;5.82;;
69769;SDS011;57282;52.514;13.458;2023-03-23T06:51:27;9.85;;;4.60;;
69769;SDS011;57282;52.514;13.458;2023-03-23T06:53:54;10.68;;;5.57;;
69769;SDS011;57282;52.514;13.458;2023-03-23T06:56:22;9.15;;;4.70;;
69769;SDS011;57282;52.514;13.458;2023-03-23T06:58:48;5.57;;;2.87;;
69769;SDS011;57282;52.514;13.458;2023-03-23T07:01:17;4.57;;;1.90;;
69769;SDS011;57282;52.514;13.458;2023-03-23T07:03:45;4.45;;;1.63;;
69769;SDS011;57282;52.514;13.458;2023-03-23T07:06:11;4.63;;;1.70;;
69769;SDS011;57282;52.514;13.458;2023-03-23T07:08:38;4.05;;;1.52;;
69769;SDS011;57282;52.514;13.458;2023-03-23T07:11:05;5.33;;;1.60;;
69769;SDS011;57282;52.514;13.458;2023-03-23T07:13:32;11.15;;;1.70;;
69769;SDS011;57282;52.514;13.458;2023-03-23T07:15:59;3.58;;;0.70;;
69769;SDS011;57282;52.514;13.458;2023-03-23T07:18:28;5.78;;;0.93;;
69769;SDS011;57282;52.514;13.458;2023-03-23T07:20:54;4.15;;;0.68;;
69769;SDS011;57282;52.514;13.458;2023-03-23T07:23:21;1.80;;;0.57;;
69769;SDS011;57282;52.514;13.458;2023-03-23T07:25:48;4.55;;;0.90;;
69769;SDS011;57282;52.514;13.458;2023-03-23T07:28:15;3.03;;;0.77;;
69769;SDS011;57282;52.514;13.458;2023-03-23T07:30:42;2.97;;;1.05;;
69769;SDS011;57282;52.514;13.458;2023-03-23T07:33:09;3.97;;;1.08;;
69769;SDS011;57282;52.514;13.458;2023-03-23T07:35:38;7.43;;;0.70;;
69769;SDS011;57282;52.514;13.458;2023-03-23T07:38:06;4.10;;;1.00;;
69769;SDS011;57282;52.514;13.458;2023-03-23T07:40:33;5.63;;;0.60;;
69769;SDS011;57282;52.514;13.458;2023-03-23T07:43:01;3.72;;;0.95;;
69769;SDS011;57282;52.514;13.458;2023-03-23T07:45:29;11.30;;;1.23;;
69769;SDS011;57282;52.514;13.458;2023-03-23T07:47:57;2.47;;;0.67;;
69769;SDS011;57282;52.514;13.458;2023-03-23T07:50:24;6.00;;;0.73;;
69769;SDS011;57282;52.514;13.458;2023-03-23T07:52:55;5.47;;;1.20;;
69769;SDS011;57282;52.514;13.458;2023-03-23T07:55:23;5.32;;;1.02;;
69769;SDS011;57282;52.514;13.458;2023-03-23T07:57:52;7.22;;;1.20;;
69769;SDS011;57282;52.514;13.458;2023-03-23T08:00:20;4.07;;;1.33;;
69769;SDS011;57282;52.514;13.458;2023-03-23T08:02:49;4.05;;;1.48;;
69769;SDS011;57282;52.514;13.458;2023-03-23T08:05:17;4.47;;;1.52;;
69769;SDS011;57282;52.514;13.458;2023-03-23T08:07:45;9.20;;;1.95;;
69769;SDS011;57282;52.514;13.458;2023-03-23T08:10:15;4.97;;;2.05;;
69769;SDS011;57282;52.514;13.458;2023-03-23T08:12:43;4.07;;;1.60;;
69769;SDS011;57282;52.514;13.458;2023-03-23T08:15:14;4.82;;;1.30;;
69769;SDS011;57282;52.514;13.458;2023-03-23T08:17:41;5.10;;;1.80;;
69769;SDS011;57282;52.514;13.458;2023-03-23T08:20:08;4.57;;;1.40;;
69769;SDS011;57282;52.514;13.458;2023-03-23T08:22:38;4.95;;;1.88;;
69769;SDS011;57282;52.514;13.458;2023-03-23T08:25:06;8.87;;;1.37;;
69769;SDS011;57282;52.514;13.458;2023-03-23T08:27:36;9.48;;;1.77;;
69769;SDS011;57282;52.514;13.458;2023-03-23T08:30:09;13.48;;;2.35;;
69769;SDS011;57282;52.514;13.458;2023-03-23T08:32:38;7.57;;;2.80;;
69769;SDS011;57282;52.514;13.458;2023-03-23T08:35:06;20.02;;;2.78;;
69769;SDS011;57282;52.514;13.458;2023-03-23T08:37:34;8.00;;;2.20;;
69769;SDS011;57282;52.514;13.458;2023-03-23T08:40:01;8.30;;;2.55;;
69769;SDS011;57282;52.514;13.458;2023-03-23T08:42:34;9.98;;;3.10;;
69769;SDS011;57282;52.514;13.458;2023-03-23T08:45:02;9.55;;;3.33;;
69769;SDS011;57282;52.514;13.458;2023-03-23T08:47:30;9.88;;;3.22;;
69769;SDS011;57282;52.514;13.458;2023-03-23T08:49:57;9.47;;;3.73;;
69769;SDS011;57282;52.514;13.458;2023-03-23T08:52:23;11.60;;;4.10;;
69769;SDS011;57282;52.514;13.458;2023-03-23T08:54:50;10.25;;;3.65;;
69769;SDS011;57282;52.514;13.458;2023-03-23T08:57:17;8.45;;;4.30;;
69769;SDS011;57282;52.514;13.458;2023-03-23T08:59:44;11.80;;;4.63;;
69769;SDS011;57282;52.514;13.458;2023-03-23T09:02:12;9.40;;;4.33;;
69769;SDS011;57282;52.514;13.458;2023-03-23T09:04:39;9.32;;;4.40;;
69769;SDS011;57282;52.514;13.458;2023-03-23T09:07:08;10.70;;;3.92;;
69769;SDS011;57282;52.514;13.458;2023-03-23T09:09:36;11.05;;;4.15;;
69769;SDS011;57282;52.514;13.458;2023-03-23T09:12:04;8.30;;;4.25;;
69769;SDS011;57282;52.514;13.458;2023-03-23T09:14:31;13.07;;;4.43;;
69769;SDS011;57282;52.514;13.458;2023-03-23T09:16:58;9.18;;;3.75;;
69769;SDS011;57282;52.514;13.458;2023-03-23T09:19:27;12.52;;;4.25;;
69769;SDS011;57282;52.514;13.458;2023-03-23T09:21:54;10.95;;;4.32;;
69769;SDS011;57282;52.514;13.458;2023-03-23T09:24:21;9.48;;;4.07;;
69769;SDS011;57282;52.514;13.458;2023-03-23T09:26:48;8.83;;;4.30;;
69769;SDS011;57282;52.514;13.458;2023-03-23T09:29:15;10.93;;;4.22;;
69769;SDS011;57282;52.514;13.458;2023-03-23T09:31:43;9.57;;;4.45;;
69769;SDS011;57282;52.514;13.458;2023-03-23T09:34:11;8.70;;;4.38;;
69769;SDS011;57282;52.514;13.458;2023-03-23T09:36:41;12.55;;;3.72;;
69769;SDS011;57282;52.514;13.458;2023-03-23T09:39:09;9.20;;;3.83;;
69769;SDS011;57282;52.514;13.458;2023-03-23T09:41:41;8.57;;;4.03;;
69769;SDS011;57282;52.514;13.458;2023-03-23T09:44:21;9.15;;;3.58;;
69769;SDS011;57282;52.514;13.458;2023-03-23T09:46:56;10.45;;;4.60;;
69769;SDS011;57282;52.514;13.458;2023-03-23T09:49:27;12.55;;;4.43;;
69769;SDS011;57282;52.514;13.458;2023-03-23T09:52:01;9.57;;;4.57;;
69769;SDS011;57282;52.514;13.458;2023-03-23T09:54:34;11.43;;;4.68;;
69769;SDS011;57282;52.514;13.458;2023-03-23T09:57:03;9.23;;;4.45;;
69769;SDS011;57282;52.514;13.458;2023-03-23T09:59:34;9.90;;;4.63;;
69769;SDS011;57282;52.514;13.458;2023-03-23T10:02:10;11.10;;;5.03;;
69769;SDS011;57282;52.514;13.458;2023-03-23T10:04:41;11.63;;;4.83;;
69769;SDS011;57282;52.514;13.458;2023-03-23T10:07:14;12.65;;;3.95;;
69769;SDS011;57282;52.514;13.458;2023-03-23T10:09:43;10.98;;;3.78;;
69769;SDS011;57282;52.514;13.458;2023-03-23T10:12:18;10.57;;;3.58;;
69769;SDS011;57282;52.514;13.458;2023-03-23T10:17:40;11.00;;;4.50;;
69769;SDS011;57282;52.514;13.458;2023-03-23T10:23:05;14.48;;;4.43;;
69769;SDS011;57282;52.514;13.458;2023-03-23T10:25:40;8.82;;;4.18;;
69769;SDS011;57282;52.514;13.458;2023-03-23T10:28:10;12.00;;;4.72;;
69769;SDS011;57282;52.514;13.458;2023-03-23T10:30:38;8.03;;;3.50;;
69769;SDS011;57282;52.514;13.458;2023-03-23T10:33:10;8.63;;;3.67;;
69769;SDS011;57282;52.514;13.458;2023-03-23T10:35:42;9.63;;;3.65;;
69769;SDS011;57282;52.514;13.458;2023-03-23T10:38:16;21.00;;;4.63;;
69769;SDS011;57282;52.514;13.458;2023-03-23T10:40:48;8.35;;;3.63;;
69769;SDS011;57282;52.514;13.458;2023-03-23T10:43:17;11.93;;;3.83;;
69769;SDS011;57282;52.514;13.458;2023-03-23T10:45:44;13.45;;;4.28;;
69769;SDS011;57282;52.514;13.458;2023-03-23T10:48:14;9.65;;;3.60;;
69769;SDS011;57282;52.514;13.458;2023-03-23T10:50:45;9.57;;;3.92;;
69769;SDS011;57282;52.514;13.458;2023-03-23T10:53:18;12.43;;;4.10;;
69769;SDS011;57282;52.514;13.458;2023-03-23T10:55:47;7.73;;;3.60;;
69769;SDS011;57282;52.514;13.458;2023-03-23T10:58:21;11.02;;;4.20;;
69769;SDS011;57282;52.514;13.458;2023-03-23T11:00:50;12.70;;;3.92;;
69769;SDS011;57282;52.514;13.458;2023-03-23T11:03:22;11.60;;;5.32;;
69769;SDS011;57282;52.514;13.458;2023-03-23T11:05:56;13.40;;;3.85;;
69769;SDS011;57282;52.514;13.458;2023-03-23T11:08:26;12.77;;;4.80;;
69769;SDS011;57282;52.514;13.458;2023-03-23T11:10:56;10.10;;;4.28;;
69769;SDS011;57282;52.514;13.458;2023-03-23T11:13:27;10.48;;;4.20;;
69769;SDS011;57282;52.514;13.458;2023-03-23T11:15:59;32.08;;;8.40;;
69769;SDS011;57282;52.514;13.458;2023-03-23T11:18:34;11.30;;;4.10;;
69769;SDS011;57282;52.514;13.458;2023-03-23T11:21:02;13.23;;;4.60;;
69769;SDS011;57282;52.514;13.458;2023-03-23T11:23:35;12.48;;;4.15;;
69769;SDS011;57282;52.514;13.458;2023-03-23T11:26:09;23.95;;;5.80;;
69769;SDS011;57282;52.514;13.458;2023-03-23T11:28:42;11.32;;;4.50;;
69769;SDS011;57282;52.514;13.458;2023-03-23T11:31:11;17.52;;;7.25;;
69769;SDS011;57282;52.514;13.458;2023-03-23T11:33:42;15.43;;;4.87;;
69769;SDS011;57282;52.514;13.458;2023-03-23T11:36:14;19.23;;;4.68;;
69769;SDS011;57282;52.514;13.458;2023-03-23T11:38:43;13.45;;;4.80;;
69769;SDS011;57282;52.514;13.458;2023-03-23T11:41:11;14.18;;;4.82;;
69769;SDS011;57282;52.514;13.458;2023-03-23T11:43:39;12.57;;;5.28;;
69769;SDS011;57282;52.514;13.458;2023-03-23T11:46:13;18.33;;;6.20;;
69769;SDS011;57282;52.514;13.458;2023-03-23T11:48:49;18.90;;;6.45;;
69769;SDS011;57282;52.514;13.458;2023-03-23T11:51:23;18.60;;;7.38;;
69769;SDS011;57282;52.514;13.458;2023-03-23T11:53:59;15.43;;;6.10;;
69769;SDS011;57282;52.514;13.458;2023-03-23T11:56:31;17.27;;;7.00;;
69769;SDS011;57282;52.514;13.458;2023-03-23T11:59:01;23.37;;;9.07;;
69769;SDS011;57282;52.514;13.458;2023-03-23T12:01:38;25.58;;;8.70;;
69769;SDS011;57282;52.514;13.458;2023-03-23T12:04:17;16.23;;;6.00;;
69769;SDS011;57282;52.514;13.458;2023-03-23T12:07:05;20.23;;;7.60;;
69769;SDS011;57282;52.514;13.458;2023-03-23T12:09:45;19.40;;;7.68;;
69769;SDS011;57282;52.514;13.458;2023-03-23T12:12:18;31.83;;;10.43;;
69769;SDS011;57282;52.514;13.458;2023-03-23T12:14:53;35.10;;;15.07;;
69769;SDS011;57282;52.514;13.458;2023-03-23T12:17:29;31.90;;;11.02;;
69769;SDS011;57282;52.514;13.458;2023-03-23T12:20:08;25.20;;;8.18;;
69769;SDS011;57282;52.514;13.458;2023-03-23T12:22:47;23.90;;;8.73;;
69769;SDS011;57282;52.514;13.458;2023-03-23T12:25:36;19.43;;;8.30;;
69769;SDS011;57282;52.514;13.458;2023-03-23T12:28:21;21.58;;;7.97;;
69769;SDS011;57282;52.514;13.458;2023-03-23T12:30:55;22.30;;;8.15;;
69769;SDS011;57282;52.514;13.458;2023-03-23T12:33:32;24.63;;;8.35;;
69769;SDS011;57282;52.514;13.458;2023-03-23T12:36:11;19.42;;;7.15;;
69769;SDS011;57282;52.514;13.458;2023-03-23T12:42:09;21.48;;;8.07;;
69769;SDS011;57282;52.514;13.458;2023-03-23T12:44:43;24.25;;;8.23;;
69769;SDS011;57282;52.514;13.458;2023-03-23T12:50:08;20.58;;;8.10;;
69769;SDS011;57282;52.514;13.458;2023-03-23T12:52:43;21.53;;;7.93;;
69769;SDS011;57282;52.514;13.458;2023-03-23T12:55:18;29.67;;;8.80;;
69769;SDS011;57282;52.514;13.458;2023-03-23T12:57:51;20.40;;;7.65;;
69769;SDS011;57282;52.514;13.458;2023-03-23T13:00:25;22.08;;;8.40;;
69769;SDS011;57282;52.514;13.458;2023-03-23T13:02:56;23.70;;;7.85;;
69769;SDS011;57282;52.514;13.458;2023-03-23T13:05:28;22.37;;;7.73;;
69769;SDS011;57282;52.514;13.458;2023-03-23T13:08:03;19.13;;;7.20;;
69769;SDS011;57282;52.514;13.458;2023-03-23T13:10:36;21.27;;;7.63;;
69769;SDS011;57282;52.514;13.458;2023-03-23T13:13:09;18.25;;;7.18;;
69769;SDS011;57282;52.514;13.458;2023-03-23T13:15:43;19.55;;;8.23;;
69769;SDS011;57282;52.514;13.458;2023-03-23T13:18:18;17.73;;;6.83;;
69769;SDS011;57282;52.514;13.458;2023-03-23T13:21:06;22.98;;;10.27;;
69769;SDS011;57282;52.514;13.458;2023-03-23T13:23:39;27.48;;;8.93;;
69769;SDS011;57282;52.514;13.458;2023-03-23T13:26:09;16.73;;;7.85;;
69769;SDS011;57282;52.514;13.458;2023-03-23T13:28:50;21.45;;;7.75;;
69769;SDS011;57282;52.514;13.458;2023-03-23T13:31:22;23.13;;;7.27;;
69769;SDS011;57282;52.514;13.458;2023-03-23T13:33:57;16.90;;;6.47;;
69769;SDS011;57282;52.514;13.458;2023-03-23T13:36:29;23.55;;;8.10;;
69769;SDS011;57282;52.514;13.458;2023-03-23T13:38:58;19.15;;;7.18;;
69769;SDS011;57282;52.514;13.458;2023-03-23T13:41:27;20.02;;;7.30;;
69769;SDS011;57282;52.514;13.458;2023-03-23T13:44:07;26.77;;;6.97;;
69769;SDS011;57282;52.514;13.458;2023-03-23T13:46:53;17.90;;;6.47;;
69769;SDS011;57282;52.514;13.458;2023-03-23T13:49:21;56.35;;;11.50;;
69769;SDS011;57282;52.514;13.458;2023-03-23T13:52:05;18.38;;;6.40;;
69769;SDS011;57282;52.514;13.458;2023-03-23T13:54:43;15.15;;;6.07;;
69769;SDS011;57282;52.514;13.458;2023-03-23T13:57:25;23.60;;;6.57;;
69769;SDS011;57282;52.514;13.458;2023-03-23T14:03:12;12.30;;;5.15;;
69769;SDS011;57282;52.514;13.458;2023-03-23T14:05:42;13.63;;;5.68;;
69769;SDS011;57282;52.514;13.458;2023-03-23T14:08:12;14.63;;;6.32;;
69769;SDS011;57282;52.514;13.458;2023-03-23T14:10:42;15.93;;;6.90;;
69769;SDS011;57282;52.514;13.458;2023-03-23T14:13:13;14.23;;;6.13;;
69769;SDS011;57282;52.514;13.458;2023-03-23T14:15:53;27.27;;;7.32;;
69769;SDS011;57282;52.514;13.458;2023-03-23T14:18:23;15.52;;;6.10;;
69769;SDS011;57282;52.514;13.458;2023-03-23T14:20:53;15.80;;;5.70;;
69769;SDS011;57282;52.514;13.458;2023-03-23T14:23:22;18.13;;;6.57;;
69769;SDS011;57282;52.514;13.458;2023-03-23T14:25:56;18.00;;;6.63;;
69769;SDS011;57282;52.514;13.458;2023-03-23T14:28:31;15.82;;;6.93;;
69769;SDS011;57282;52.514;13.458;2023-03-23T14:31:00;20.88;;;7.25;;
69769;SDS011;57282;52.514;13.458;2023-03-23T14:33:27;15.93;;;6.50;;
69769;SDS011;57282;52.514;13.458;2023-03-23T14:35:54;16.67;;;6.77;;
69769;SDS011;57282;52.514;13.458;2023-03-23T14:38:24;19.63;;;7.65;;
69769;SDS011;57282;52.514;13.458;2023-03-23T14:40:59;17.33;;;9.00;;
69769;SDS011;57282;52.514;13.458;2023-03-23T14:43:28;15.98;;;6.68;;
69769;SDS011;57282;52.514;13.458;2023-03-23T14:45:58;17.85;;;7.75;;
69769;SDS011;57282;52.514;13.458;2023-03-23T14:48:27;14.70;;;6.57;;
69769;SDS011;57282;52.514;13.458;2023-03-23T14:50:56;16.98;;;6.95;;
69769;SDS011;57282;52.514;13.458;2023-03-23T14:53:25;16.70;;;7.20;;
69769;SDS011;57282;52.514;13.458;2023-03-23T14:55:59;17.70;;;6.20;;
69769;SDS011;57282;52.514;13.458;2023-03-23T14:58:30;30.23;;;7.72;;
69769;SDS011;57282;52.514;13.458;2023-03-23T15:00:59;22.87;;;8.07;;